sensor_id;sensor_type;location;lat;lon;timestamp;P1;durP1;ratioP1;P2;durP2;ratioP2
10432;SDS011;5263;48.680;9.004;2022-12-22T00:01:31;2.57;;;0.97;;
10432;SDS011;5263;48.680;9.004;2022-12-22T00:04:17;1.50;;;0.80;;
10432;SDS011;5263;48.680;9.004;2022-12-22T00:07:01;0.53;;;0.53;;
10432;SDS011;5263;48.680;9.004;2022-12-22T00:09:45;1.60;;;0.77;;
10432;SDS011;5263;48.680;9.004;2022-12-22T00:12:29;2.40;;;0.60;;
10432;SDS011;5263;48.680;9.004;2022-12-22T00:15:14;2.30;;;0.90;;
10432;SDS011;5263;48.680;9.004;2022-12-22T00:17:59;0.70;;;0.70;;
10432;SDS011;5263;48.680;9.004;2022-12-22T00:20:44;1.63;;;0.80;;
10432;SDS011;5263;48.680;9.004;2022-12-22T00:23:29;2.13;;;0.73;;
10432;SDS011;5263;48.680;9.004;2022-12-22T00:26:13;0.67;;;0.60;;
10432;SDS011;5263;48.680;9.004;2022-12-22T00:28:58;1.07;;;0.70;;
10432;SDS011;5263;48.680;9.004;2022-12-22T00:31:43;0.60;;;0.60;;
10432;SDS011;5263;48.680;9.004;2022-12-22T00:34:28;1.37;;;0.80;;
10432;SDS011;5263;48.680;9.004;2022-12-22T00:37:15;0.77;;;0.77;;
10432;SDS011;5263;48.680;9.004;2022-12-22T00:39:59;5.17;;;1.23;;
10432;SDS011;5263;48.680;9.004;2022-12-22T00:42:44;1.20;;;1.10;;
10432;SDS011;5263;48.680;9.004;2022-12-22T00:45:28;1.73;;;1.30;;
10432;SDS011;5263;48.680;9.004;2022-12-22T00:48:18;2.50;;;1.03;;
10432;SDS011;5263;48.680;9.004;2022-12-22T00:51:07;1.87;;;1.47;;
10432;SDS011;5263;48.680;9.004;2022-12-22T00:53:52;1.67;;;1.30;;
10432;SDS011;5263;48.680;9.004;2022-12-22T00:56:36;1.60;;;1.47;;
10432;SDS011;5263;48.680;9.004;2022-12-22T00:59:20;3.33;;;1.80;;
10432;SDS011;5263;48.680;9.004;2022-12-22T01:02:04;1.80;;;1.40;;
10432;SDS011;5263;48.680;9.004;2022-12-22T01:04:49;1.93;;;1.33;;
10432;SDS011;5263;48.680;9.004;2022-12-22T01:07:33;1.30;;;1.20;;
10432;SDS011;5263;48.680;9.004;2022-12-22T01:10:17;2.73;;;1.30;;
10432;SDS011;5263;48.680;9.004;2022-12-22T01:13:12;1.13;;;1.03;;
10432;SDS011;5263;48.680;9.004;2022-12-22T01:15:57;2.33;;;1.67;;
10432;SDS011;5263;48.680;9.004;2022-12-22T01:18:41;3.27;;;1.53;;
10432;SDS011;5263;48.680;9.004;2022-12-22T01:21:25;2.33;;;1.70;;
10432;SDS011;5263;48.680;9.004;2022-12-22T01:24:11;1.70;;;1.30;;
10432;SDS011;5263;48.680;9.004;2022-12-22T01:27:00;1.60;;;1.50;;
10432;SDS011;5263;48.680;9.004;2022-12-22T01:29:45;3.30;;;1.37;;
10432;SDS011;5263;48.680;9.004;2022-12-22T01:32:30;2.33;;;1.23;;
10432;SDS011;5263;48.680;9.004;2022-12-22T01:35:16;3.97;;;1.43;;
10432;SDS011;5263;48.680;9.004;2022-12-22T01:38:01;1.30;;;1.20;;
10432;SDS011;5263;48.680;9.004;2022-12-22T01:40:45;2.00;;;1.20;;
10432;SDS011;5263;48.680;9.004;2022-12-22T01:43:30;2.07;;;1.87;;
10432;SDS011;5263;48.680;9.004;2022-12-22T01:46:26;2.67;;;1.90;;
10432;SDS011;5263;48.680;9.004;2022-12-22T01:49:12;2.07;;;1.90;;
10432;SDS011;5263;48.680;9.004;2022-12-22T01:51:58;3.27;;;1.50;;
10432;SDS011;5263;48.680;9.004;2022-12-22T01:54:42;1.93;;;1.70;;
10432;SDS011;5263;48.680;9.004;2022-12-22T01:57:27;1.40;;;1.27;;
10432;SDS011;5263;48.680;9.004;2022-12-22T02:00:12;1.63;;;1.33;;
10432;SDS011;5263;48.680;9.004;2022-12-22T02:02:57;1.50;;;1.40;;
10432;SDS011;5263;48.680;9.004;2022-12-22T02:05:47;2.23;;;1.50;;
10432;SDS011;5263;48.680;9.004;2022-12-22T02:09:04;2.37;;;1.63;;
10432;SDS011;5263;48.680;9.004;2022-12-22T02:11:59;1.90;;;1.37;;
10432;SDS011;5263;48.680;9.004;2022-12-22T02:17:54;1.97;;;1.77;;
10432;SDS011;5263;48.680;9.004;2022-12-22T02:20:49;1.30;;;1.20;;
10432;SDS011;5263;48.680;9.004;2022-12-22T02:26:46;0.90;;;0.90;;
10432;SDS011;5263;48.680;9.004;2022-12-22T02:29:38;0.80;;;0.80;;
10432;SDS011;5263;48.680;9.004;2022-12-22T02:32:31;1.00;;;0.77;;
10432;SDS011;5263;48.680;9.004;2022-12-22T02:35:18;0.80;;;0.80;;
10432;SDS011;5263;48.680;9.004;2022-12-22T02:44:00;0.93;;;0.90;;
10432;SDS011;5263;48.680;9.004;2022-12-22T02:47:02;1.53;;;1.00;;
10432;SDS011;5263;48.680;9.004;2022-12-22T02:53:10;0.73;;;0.67;;
10432;SDS011;5263;48.680;9.004;2022-12-22T02:56:01;2.70;;;1.30;;
10432;SDS011;5263;48.680;9.004;2022-12-22T02:58:48;2.10;;;1.03;;
10432;SDS011;5263;48.680;9.004;2022-12-22T03:01:32;0.73;;;0.53;;
10432;SDS011;5263;48.680;9.004;2022-12-22T03:04:16;1.03;;;0.67;;
10432;SDS011;5263;48.680;9.004;2022-12-22T03:07:00;1.70;;;0.90;;
10432;SDS011;5263;48.680;9.004;2022-12-22T03:09:44;1.33;;;0.80;;
10432;SDS011;5263;48.680;9.004;2022-12-22T03:12:28;2.20;;;0.87;;
10432;SDS011;5263;48.680;9.004;2022-12-22T03:15:12;0.80;;;0.50;;
10432;SDS011;5263;48.680;9.004;2022-12-22T03:18:01;1.27;;;0.90;;
10432;SDS011;5263;48.680;9.004;2022-12-22T03:20:46;0.47;;;0.47;;
10432;SDS011;5263;48.680;9.004;2022-12-22T03:23:30;0.43;;;0.43;;
10432;SDS011;5263;48.680;9.004;2022-12-22T03:26:14;1.07;;;0.50;;
10432;SDS011;5263;48.680;9.004;2022-12-22T03:28:39;0.43;;;0.43;;
10432;SDS011;5263;48.680;9.004;2022-12-22T03:31:05;0.80;;;0.40;;
10432;SDS011;5263;48.680;9.004;2022-12-22T03:33:31;1.13;;;0.60;;
10432;SDS011;5263;48.680;9.004;2022-12-22T03:35:57;0.73;;;0.60;;
10432;SDS011;5263;48.680;9.004;2022-12-22T03:38:23;2.43;;;0.30;;
10432;SDS011;5263;48.680;9.004;2022-12-22T03:40:49;0.57;;;0.33;;
10432;SDS011;5263;48.680;9.004;2022-12-22T03:43:15;1.73;;;0.20;;
10432;SDS011;5263;48.680;9.004;2022-12-22T03:46:00;0.37;;;0.20;;
10432;SDS011;5263;48.680;9.004;2022-12-22T03:48:44;0.70;;;0.20;;
10432;SDS011;5263;48.680;9.004;2022-12-22T03:51:31;1.40;;;0.27;;
10432;SDS011;5263;48.680;9.004;2022-12-22T03:53:57;2.83;;;0.30;;
10432;SDS011;5263;48.680;9.004;2022-12-22T03:56:23;0.90;;;0.20;;
10432;SDS011;5263;48.680;9.004;2022-12-22T03:58:49;0.73;;;0.30;;
10432;SDS011;5263;48.680;9.004;2022-12-22T04:01:15;0.20;;;0.20;;
10432;SDS011;5263;48.680;9.004;2022-12-22T04:03:41;0.30;;;0.27;;
10432;SDS011;5263;48.680;9.004;2022-12-22T04:06:06;0.40;;;0.30;;
10432;SDS011;5263;48.680;9.004;2022-12-22T04:08:32;0.20;;;0.20;;
10432;SDS011;5263;48.680;9.004;2022-12-22T04:10:58;0.43;;;0.20;;
10432;SDS011;5263;48.680;9.004;2022-12-22T04:13:42;0.50;;;0.30;;
10432;SDS011;5263;48.680;9.004;2022-12-22T04:16:07;1.20;;;0.20;;
10432;SDS011;5263;48.680;9.004;2022-12-22T04:18:33;0.20;;;0.20;;
10432;SDS011;5263;48.680;9.004;2022-12-22T04:20:59;0.33;;;0.27;;
10432;SDS011;5263;48.680;9.004;2022-12-22T04:23:24;0.20;;;0.20;;
10432;SDS011;5263;48.680;9.004;2022-12-22T04:25:50;1.50;;;0.20;;
10432;SDS011;5263;48.680;9.004;2022-12-22T04:28:15;0.57;;;0.20;;
10432;SDS011;5263;48.680;9.004;2022-12-22T04:30:41;0.10;;;0.10;;
10432;SDS011;5263;48.680;9.004;2022-12-22T04:33:06;0.73;;;0.30;;
10432;SDS011;5263;48.680;9.004;2022-12-22T04:35:32;1.37;;;0.30;;
10432;SDS011;5263;48.680;9.004;2022-12-22T04:37:58;0.30;;;0.30;;
10432;SDS011;5263;48.680;9.004;2022-12-22T04:40:23;2.13;;;0.27;;
10432;SDS011;5263;48.680;9.004;2022-12-22T04:42:49;1.73;;;0.37;;
10432;SDS011;5263;48.680;9.004;2022-12-22T04:45:14;1.50;;;0.20;;
10432;SDS011;5263;48.680;9.004;2022-12-22T04:47:40;2.43;;;0.30;;
10432;SDS011;5263;48.680;9.004;2022-12-22T04:50:05;1.30;;;0.30;;
10432;SDS011;5263;48.680;9.004;2022-12-22T04:52:31;2.23;;;0.30;;
10432;SDS011;5263;48.680;9.004;2022-12-22T04:54:57;1.70;;;0.30;;
10432;SDS011;5263;48.680;9.004;2022-12-22T04:57:23;0.77;;;0.30;;
10432;SDS011;5263;48.680;9.004;2022-12-22T04:59:48;0.57;;;0.20;;
10432;SDS011;5263;48.680;9.004;2022-12-22T05:02:14;2.47;;;0.37;;
10432;SDS011;5263;48.680;9.004;2022-12-22T05:04:40;0.83;;;0.30;;
10432;SDS011;5263;48.680;9.004;2022-12-22T05:07:05;2.30;;;0.40;;
10432;SDS011;5263;48.680;9.004;2022-12-22T05:09:31;2.50;;;0.30;;
10432;SDS011;5263;48.680;9.004;2022-12-22T05:11:57;3.20;;;0.30;;
10432;SDS011;5263;48.680;9.004;2022-12-22T05:14:23;0.93;;;0.33;;
10432;SDS011;5263;48.680;9.004;2022-12-22T05:16:49;1.60;;;0.30;;
10432;SDS011;5263;48.680;9.004;2022-12-22T05:19:14;3.60;;;0.30;;
10432;SDS011;5263;48.680;9.004;2022-12-22T05:21:40;3.80;;;0.40;;
10432;SDS011;5263;48.680;9.004;2022-12-22T05:24:05;2.60;;;0.37;;
10432;SDS011;5263;48.680;9.004;2022-12-22T05:26:31;0.30;;;0.30;;
10432;SDS011;5263;48.680;9.004;2022-12-22T05:28:57;1.40;;;0.37;;
10432;SDS011;5263;48.680;9.004;2022-12-22T05:31:23;1.00;;;0.60;;
10432;SDS011;5263;48.680;9.004;2022-12-22T05:33:50;2.57;;;0.43;;
10432;SDS011;5263;48.680;9.004;2022-12-22T05:36:15;1.87;;;0.47;;
10432;SDS011;5263;48.680;9.004;2022-12-22T05:38:41;2.37;;;0.57;;
10432;SDS011;5263;48.680;9.004;2022-12-22T05:41:08;4.83;;;0.87;;
10432;SDS011;5263;48.680;9.004;2022-12-22T05:43:34;3.07;;;0.60;;
10432;SDS011;5263;48.680;9.004;2022-12-22T05:46:02;2.23;;;0.40;;
10432;SDS011;5263;48.680;9.004;2022-12-22T05:48:30;5.90;;;0.40;;
10432;SDS011;5263;48.680;9.004;2022-12-22T05:50:56;2.40;;;0.37;;
10432;SDS011;5263;48.680;9.004;2022-12-22T05:53:21;2.10;;;0.63;;
10432;SDS011;5263;48.680;9.004;2022-12-22T05:55:47;3.93;;;0.97;;
10432;SDS011;5263;48.680;9.004;2022-12-22T05:58:13;4.73;;;0.83;;
10432;SDS011;5263;48.680;9.004;2022-12-22T06:00:39;7.23;;;0.87;;
10432;SDS011;5263;48.680;9.004;2022-12-22T06:03:04;5.90;;;0.47;;
10432;SDS011;5263;48.680;9.004;2022-12-22T06:05:30;2.37;;;0.60;;
10432;SDS011;5263;48.680;9.004;2022-12-22T06:07:56;2.87;;;0.70;;
10432;SDS011;5263;48.680;9.004;2022-12-22T06:10:21;4.50;;;0.50;;
10432;SDS011;5263;48.680;9.004;2022-12-22T06:12:47;6.80;;;1.60;;
10432;SDS011;5263;48.680;9.004;2022-12-22T06:15:13;4.33;;;0.87;;
10432;SDS011;5263;48.680;9.004;2022-12-22T06:17:39;3.43;;;0.40;;
10432;SDS011;5263;48.680;9.004;2022-12-22T06:20:05;2.33;;;0.53;;
10432;SDS011;5263;48.680;9.004;2022-12-22T06:22:32;2.40;;;0.50;;
10432;SDS011;5263;48.680;9.004;2022-12-22T06:24:58;8.70;;;0.83;;
10432;SDS011;5263;48.680;9.004;2022-12-22T06:27:24;1.70;;;0.47;;
10432;SDS011;5263;48.680;9.004;2022-12-22T06:29:50;8.77;;;0.80;;
10432;SDS011;5263;48.680;9.004;2022-12-22T06:32:15;4.67;;;0.90;;
10432;SDS011;5263;48.680;9.004;2022-12-22T06:34:41;4.63;;;0.90;;
10432;SDS011;5263;48.680;9.004;2022-12-22T06:37:07;4.00;;;0.53;;
10432;SDS011;5263;48.680;9.004;2022-12-22T06:39:32;6.23;;;0.83;;
10432;SDS011;5263;48.680;9.004;2022-12-22T06:41:58;4.27;;;0.67;;
10432;SDS011;5263;48.680;9.004;2022-12-22T06:44:42;3.27;;;0.80;;
10432;SDS011;5263;48.680;9.004;2022-12-22T06:47:07;5.93;;;0.90;;
10432;SDS011;5263;48.680;9.004;2022-12-22T06:49:33;6.37;;;1.00;;
10432;SDS011;5263;48.680;9.004;2022-12-22T06:51:58;6.33;;;0.90;;
10432;SDS011;5263;48.680;9.004;2022-12-22T06:54:24;5.63;;;0.80;;
10432;SDS011;5263;48.680;9.004;2022-12-22T06:56:50;5.77;;;0.90;;
10432;SDS011;5263;48.680;9.004;2022-12-22T06:59:15;9.27;;;1.93;;
10432;SDS011;5263;48.680;9.004;2022-12-22T07:01:41;4.40;;;0.80;;
10432;SDS011;5263;48.680;9.004;2022-12-22T07:04:07;3.93;;;1.00;;
10432;SDS011;5263;48.680;9.004;2022-12-22T07:06:33;7.73;;;1.17;;
10432;SDS011;5263;48.680;9.004;2022-12-22T07:08:59;5.23;;;1.17;;
10432;SDS011;5263;48.680;9.004;2022-12-22T07:11:25;6.13;;;0.70;;
10432;SDS011;5263;48.680;9.004;2022-12-22T07:13:51;6.57;;;0.70;;
10432;SDS011;5263;48.680;9.004;2022-12-22T07:16:16;7.33;;;0.87;;
10432;SDS011;5263;48.680;9.004;2022-12-22T07:18:42;5.47;;;0.70;;
10432;SDS011;5263;48.680;9.004;2022-12-22T07:21:09;7.13;;;1.00;;
10432;SDS011;5263;48.680;9.004;2022-12-22T07:23:36;5.17;;;0.87;;
10432;SDS011;5263;48.680;9.004;2022-12-22T07:26:03;12.43;;;1.20;;
10432;SDS011;5263;48.680;9.004;2022-12-22T07:28:31;8.27;;;0.73;;
10432;SDS011;5263;48.680;9.004;2022-12-22T07:33:53;2.93;;;0.80;;
10432;SDS011;5263;48.680;9.004;2022-12-22T07:36:19;3.43;;;0.90;;
10432;SDS011;5263;48.680;9.004;2022-12-22T07:38:46;5.13;;;0.70;;
10432;SDS011;5263;48.680;9.004;2022-12-22T07:41:14;8.80;;;1.63;;
10432;SDS011;5263;48.680;9.004;2022-12-22T07:44:00;7.63;;;1.33;;
10432;SDS011;5263;48.680;9.004;2022-12-22T07:46:26;3.57;;;1.57;;
10432;SDS011;5263;48.680;9.004;2022-12-22T07:49:02;8.50;;;1.40;;
10432;SDS011;5263;48.680;9.004;2022-12-22T07:51:47;7.03;;;1.10;;
10432;SDS011;5263;48.680;9.004;2022-12-22T07:54:14;13.53;;;5.37;;
10432;SDS011;5263;48.680;9.004;2022-12-22T07:56:40;8.23;;;1.57;;
10432;SDS011;5263;48.680;9.004;2022-12-22T07:59:06;2.60;;;0.77;;
10432;SDS011;5263;48.680;9.004;2022-12-22T08:01:33;5.93;;;1.30;;
10432;SDS011;5263;48.680;9.004;2022-12-22T08:03:58;4.57;;;0.73;;
10432;SDS011;5263;48.680;9.004;2022-12-22T08:06:24;2.80;;;0.70;;
10432;SDS011;5263;48.680;9.004;2022-12-22T08:08:50;5.33;;;1.30;;
10432;SDS011;5263;48.680;9.004;2022-12-22T08:11:16;5.53;;;0.90;;
10432;SDS011;5263;48.680;9.004;2022-12-22T08:13:42;12.53;;;1.13;;
10432;SDS011;5263;48.680;9.004;2022-12-22T08:16:08;9.70;;;0.90;;
10432;SDS011;5263;48.680;9.004;2022-12-22T08:18:35;7.10;;;1.10;;
10432;SDS011;5263;48.680;9.004;2022-12-22T08:21:02;9.53;;;0.93;;
10432;SDS011;5263;48.680;9.004;2022-12-22T08:23:28;6.90;;;0.93;;
10432;SDS011;5263;48.680;9.004;2022-12-22T08:25:59;9.10;;;1.00;;
10432;SDS011;5263;48.680;9.004;2022-12-22T08:28:40;8.43;;;1.00;;
10432;SDS011;5263;48.680;9.004;2022-12-22T08:31:10;7.37;;;1.00;;
10432;SDS011;5263;48.680;9.004;2022-12-22T08:33:36;8.90;;;0.90;;
10432;SDS011;5263;48.680;9.004;2022-12-22T08:36:01;6.63;;;1.30;;
10432;SDS011;5263;48.680;9.004;2022-12-22T08:38:28;4.23;;;0.80;;
10432;SDS011;5263;48.680;9.004;2022-12-22T08:40:54;7.93;;;1.07;;
10432;SDS011;5263;48.680;9.004;2022-12-22T08:43:20;6.63;;;1.07;;
10432;SDS011;5263;48.680;9.004;2022-12-22T08:45:46;3.33;;;0.70;;
10432;SDS011;5263;48.680;9.004;2022-12-22T08:48:11;3.13;;;0.63;;
10432;SDS011;5263;48.680;9.004;2022-12-22T08:50:37;5.23;;;1.00;;
10432;SDS011;5263;48.680;9.004;2022-12-22T08:53:05;4.37;;;0.80;;
10432;SDS011;5263;48.680;9.004;2022-12-22T08:55:32;2.07;;;0.70;;
10432;SDS011;5263;48.680;9.004;2022-12-22T08:57:57;4.70;;;0.80;;
10432;SDS011;5263;48.680;9.004;2022-12-22T09:00:23;5.67;;;0.80;;
10432;SDS011;5263;48.680;9.004;2022-12-22T09:02:49;3.80;;;1.00;;
10432;SDS011;5263;48.680;9.004;2022-12-22T09:05:14;4.60;;;0.93;;
10432;SDS011;5263;48.680;9.004;2022-12-22T09:07:40;5.20;;;0.83;;
10432;SDS011;5263;48.680;9.004;2022-12-22T09:10:06;10.40;;;1.00;;
10432;SDS011;5263;48.680;9.004;2022-12-22T09:12:41;5.30;;;0.80;;
10432;SDS011;5263;48.680;9.004;2022-12-22T09:15:15;7.40;;;0.80;;
10432;SDS011;5263;48.680;9.004;2022-12-22T09:17:42;9.97;;;1.33;;
10432;SDS011;5263;48.680;9.004;2022-12-22T09:20:07;3.57;;;0.70;;
10432;SDS011;5263;48.680;9.004;2022-12-22T09:22:33;7.63;;;1.27;;
10432;SDS011;5263;48.680;9.004;2022-12-22T09:24:59;5.33;;;0.90;;
10432;SDS011;5263;48.680;9.004;2022-12-22T09:27:24;7.47;;;1.13;;
10432;SDS011;5263;48.680;9.004;2022-12-22T09:29:50;4.83;;;1.20;;
10432;SDS011;5263;48.680;9.004;2022-12-22T09:32:16;10.40;;;1.53;;
10432;SDS011;5263;48.680;9.004;2022-12-22T09:34:41;9.23;;;1.00;;
10432;SDS011;5263;48.680;9.004;2022-12-22T09:37:07;8.57;;;1.07;;
10432;SDS011;5263;48.680;9.004;2022-12-22T09:39:32;12.30;;;1.17;;
10432;SDS011;5263;48.680;9.004;2022-12-22T09:41:58;5.27;;;1.20;;
10432;SDS011;5263;48.680;9.004;2022-12-22T09:44:26;9.20;;;1.43;;
10432;SDS011;5263;48.680;9.004;2022-12-22T09:50:02;5.53;;;0.90;;
10432;SDS011;5263;48.680;9.004;2022-12-22T09:54:59;4.97;;;1.20;;
10432;SDS011;5263;48.680;9.004;2022-12-22T09:57:28;5.83;;;0.80;;
10432;SDS011;5263;48.680;9.004;2022-12-22T09:59:56;5.00;;;0.70;;
10432;SDS011;5263;48.680;9.004;2022-12-22T10:07:41;4.13;;;0.97;;
10432;SDS011;5263;48.680;9.004;2022-12-22T10:10:24;9.77;;;0.73;;
10432;SDS011;5263;48.680;9.004;2022-12-22T10:12:56;7.17;;;0.80;;
10432;SDS011;5263;48.680;9.004;2022-12-22T10:15:23;9.53;;;1.07;;
10432;SDS011;5263;48.680;9.004;2022-12-22T10:17:51;5.97;;;0.80;;
10432;SDS011;5263;48.680;9.004;2022-12-22T10:22:47;3.77;;;0.70;;
10432;SDS011;5263;48.680;9.004;2022-12-22T10:25:33;5.93;;;1.53;;
10432;SDS011;5263;48.680;9.004;2022-12-22T10:28:05;2.23;;;0.53;;
10432;SDS011;5263;48.680;9.004;2022-12-22T10:30:35;7.37;;;0.93;;
10432;SDS011;5263;48.680;9.004;2022-12-22T10:33:11;5.97;;;1.20;;
10432;SDS011;5263;48.680;9.004;2022-12-22T10:40:45;8.67;;;0.93;;
10432;SDS011;5263;48.680;9.004;2022-12-22T10:43:20;4.17;;;0.83;;
10432;SDS011;5263;48.680;9.004;2022-12-22T10:45:51;4.17;;;0.70;;
10432;SDS011;5263;48.680;9.004;2022-12-22T10:48:29;4.73;;;1.97;;
10432;SDS011;5263;48.680;9.004;2022-12-22T10:51:00;6.53;;;0.80;;
10432;SDS011;5263;48.680;9.004;2022-12-22T10:53:47;6.83;;;1.00;;
10432;SDS011;5263;48.680;9.004;2022-12-22T10:58:53;4.80;;;0.60;;
10432;SDS011;5263;48.680;9.004;2022-12-22T11:01:22;2.37;;;0.50;;
10432;SDS011;5263;48.680;9.004;2022-12-22T11:03:50;4.93;;;0.90;;
10432;SDS011;5263;48.680;9.004;2022-12-22T11:06:15;4.27;;;0.43;;
10432;SDS011;5263;48.680;9.004;2022-12-22T11:08:41;5.53;;;0.50;;
10432;SDS011;5263;48.680;9.004;2022-12-22T11:11:15;2.80;;;0.50;;
10432;SDS011;5263;48.680;9.004;2022-12-22T11:14:06;6.90;;;0.63;;
10432;SDS011;5263;48.680;9.004;2022-12-22T11:16:49;3.93;;;0.43;;
10432;SDS011;5263;48.680;9.004;2022-12-22T11:19:40;6.23;;;0.60;;
10432;SDS011;5263;48.680;9.004;2022-12-22T11:22:27;4.90;;;0.73;;
10432;SDS011;5263;48.680;9.004;2022-12-22T11:25:09;2.70;;;0.43;;
10432;SDS011;5263;48.680;9.004;2022-12-22T11:30:09;2.90;;;0.43;;
10432;SDS011;5263;48.680;9.004;2022-12-22T11:40:45;2.83;;;0.50;;
10432;SDS011;5263;48.680;9.004;2022-12-22T11:43:23;2.43;;;0.50;;
10432;SDS011;5263;48.680;9.004;2022-12-22T11:54:38;3.30;;;0.30;;
10432;SDS011;5263;48.680;9.004;2022-12-22T11:57:33;3.07;;;0.40;;
10432;SDS011;5263;48.680;9.004;2022-12-22T12:10:27;1.60;;;0.33;;
10432;SDS011;5263;48.680;9.004;2022-12-22T12:18:52;1.27;;;0.30;;
10432;SDS011;5263;48.680;9.004;2022-12-22T12:32:39;1.23;;;0.30;;
10432;SDS011;5263;48.680;9.004;2022-12-22T12:37:48;1.70;;;0.30;;
10432;SDS011;5263;48.680;9.004;2022-12-22T12:43:08;2.77;;;0.23;;
10432;SDS011;5263;48.680;9.004;2022-12-22T12:45:41;1.30;;;0.33;;
10432;SDS011;5263;48.680;9.004;2022-12-22T12:50:47;1.17;;;0.30;;
10432;SDS011;5263;48.680;9.004;2022-12-22T12:53:17;0.90;;;0.27;;
10432;SDS011;5263;48.680;9.004;2022-12-22T13:01:04;0.70;;;0.33;;
10432;SDS011;5263;48.680;9.004;2022-12-22T13:03:36;1.57;;;0.30;;
10432;SDS011;5263;48.680;9.004;2022-12-22T13:06:04;1.40;;;0.20;;
10432;SDS011;5263;48.680;9.004;2022-12-22T13:08:32;1.70;;;0.60;;
10432;SDS011;5263;48.680;9.004;2022-12-22T13:11:31;4.50;;;0.40;;
10432;SDS011;5263;48.680;9.004;2022-12-22T13:14:01;0.50;;;0.27;;
10432;SDS011;5263;48.680;9.004;2022-12-22T13:16:28;1.83;;;0.20;;
10432;SDS011;5263;48.680;9.004;2022-12-22T13:18:55;1.10;;;0.20;;
10432;SDS011;5263;48.680;9.004;2022-12-22T13:21:24;1.67;;;0.40;;
10432;SDS011;5263;48.680;9.004;2022-12-22T13:26:52;0.70;;;0.30;;
10432;SDS011;5263;48.680;9.004;2022-12-22T13:29:25;1.47;;;0.30;;
10432;SDS011;5263;48.680;9.004;2022-12-22T13:32:32;1.77;;;0.20;;
10432;SDS011;5263;48.680;9.004;2022-12-22T13:37:38;2.27;;;0.60;;
10432;SDS011;5263;48.680;9.004;2022-12-22T13:40:25;0.70;;;0.23;;
10432;SDS011;5263;48.680;9.004;2022-12-22T13:45:38;2.10;;;0.57;;
10432;SDS011;5263;48.680;9.004;2022-12-22T13:48:49;3.17;;;0.53;;
10432;SDS011;5263;48.680;9.004;2022-12-22T13:50:58;1.43;;;0.60;;
10432;SDS011;5263;48.680;9.004;2022-12-22T13:56:06;2.63;;;0.73;;
10432;SDS011;5263;48.680;9.004;2022-12-22T13:58:36;4.47;;;0.63;;
10432;SDS011;5263;48.680;9.004;2022-12-22T14:03:34;3.33;;;0.60;;
10432;SDS011;5263;48.680;9.004;2022-12-22T14:06:00;1.37;;;0.40;;
10432;SDS011;5263;48.680;9.004;2022-12-22T14:08:26;3.13;;;0.47;;
10432;SDS011;5263;48.680;9.004;2022-12-22T14:10:52;1.20;;;0.40;;
10432;SDS011;5263;48.680;9.004;2022-12-22T14:13:21;5.17;;;0.83;;
10432;SDS011;5263;48.680;9.004;2022-12-22T14:15:58;4.83;;;0.60;;
10432;SDS011;5263;48.680;9.004;2022-12-22T14:18:25;5.50;;;1.20;;
10432;SDS011;5263;48.680;9.004;2022-12-22T14:20:51;6.20;;;0.80;;
10432;SDS011;5263;48.680;9.004;2022-12-22T14:25:48;2.43;;;0.60;;
10432;SDS011;5263;48.680;9.004;2022-12-22T14:28:20;3.50;;;0.63;;
10432;SDS011;5263;48.680;9.004;2022-12-22T14:30:57;5.40;;;0.90;;
10432;SDS011;5263;48.680;9.004;2022-12-22T14:36:15;5.17;;;1.20;;
10432;SDS011;5263;48.680;9.004;2022-12-22T14:38:44;7.07;;;0.77;;
10432;SDS011;5263;48.680;9.004;2022-12-22T14:41:17;4.50;;;1.10;;
10432;SDS011;5263;48.680;9.004;2022-12-22T14:44:01;3.80;;;0.90;;
10432;SDS011;5263;48.680;9.004;2022-12-22T14:46:28;4.23;;;0.73;;
10432;SDS011;5263;48.680;9.004;2022-12-22T14:48:54;6.60;;;0.90;;
10432;SDS011;5263;48.680;9.004;2022-12-22T14:51:22;4.87;;;0.90;;
10432;SDS011;5263;48.680;9.004;2022-12-22T14:53:50;5.80;;;1.20;;
10432;SDS011;5263;48.680;9.004;2022-12-22T14:56:18;8.53;;;1.27;;
10432;SDS011;5263;48.680;9.004;2022-12-22T14:58:45;4.80;;;1.03;;
10432;SDS011;5263;48.680;9.004;2022-12-22T15:01:14;7.33;;;0.97;;
10432;SDS011;5263;48.680;9.004;2022-12-22T15:03:56;10.80;;;0.83;;
10432;SDS011;5263;48.680;9.004;2022-12-22T15:11:33;4.93;;;0.80;;
10432;SDS011;5263;48.680;9.004;2022-12-22T15:14:01;8.47;;;1.00;;
10432;SDS011;5263;48.680;9.004;2022-12-22T15:16:28;4.33;;;0.77;;
10432;SDS011;5263;48.680;9.004;2022-12-22T15:18:55;4.23;;;0.93;;
10432;SDS011;5263;48.680;9.004;2022-12-22T15:21:21;4.43;;;0.97;;
10432;SDS011;5263;48.680;9.004;2022-12-22T15:23:47;4.57;;;0.77;;
10432;SDS011;5263;48.680;9.004;2022-12-22T15:26:13;6.60;;;0.63;;
10432;SDS011;5263;48.680;9.004;2022-12-22T15:28:39;4.87;;;0.83;;
10432;SDS011;5263;48.680;9.004;2022-12-22T15:31:14;4.83;;;0.80;;
10432;SDS011;5263;48.680;9.004;2022-12-22T15:33:41;5.83;;;1.03;;
10432;SDS011;5263;48.680;9.004;2022-12-22T15:36:11;5.27;;;0.70;;
10432;SDS011;5263;48.680;9.004;2022-12-22T15:38:38;4.47;;;0.90;;
10432;SDS011;5263;48.680;9.004;2022-12-22T15:41:04;8.70;;;1.13;;
10432;SDS011;5263;48.680;9.004;2022-12-22T15:43:30;6.40;;;0.80;;
10432;SDS011;5263;48.680;9.004;2022-12-22T15:45:56;8.60;;;1.00;;
10432;SDS011;5263;48.680;9.004;2022-12-22T15:48:22;6.90;;;0.97;;
10432;SDS011;5263;48.680;9.004;2022-12-22T15:50:54;6.43;;;0.87;;
10432;SDS011;5263;48.680;9.004;2022-12-22T15:53:21;7.97;;;0.83;;
10432;SDS011;5263;48.680;9.004;2022-12-22T15:55:48;9.07;;;1.37;;
10432;SDS011;5263;48.680;9.004;2022-12-22T15:58:17;6.63;;;1.53;;
10432;SDS011;5263;48.680;9.004;2022-12-22T16:00:45;7.53;;;1.30;;
10432;SDS011;5263;48.680;9.004;2022-12-22T16:03:11;4.27;;;0.80;;
10432;SDS011;5263;48.680;9.004;2022-12-22T16:05:37;5.17;;;1.10;;
10432;SDS011;5263;48.680;9.004;2022-12-22T16:08:05;4.07;;;1.00;;
10432;SDS011;5263;48.680;9.004;2022-12-22T16:10:36;4.93;;;0.90;;
10432;SDS011;5263;48.680;9.004;2022-12-22T16:13:02;12.63;;;2.07;;
10432;SDS011;5263;48.680;9.004;2022-12-22T16:15:32;7.30;;;1.27;;
10432;SDS011;5263;48.680;9.004;2022-12-22T16:17:58;8.33;;;1.47;;
10432;SDS011;5263;48.680;9.004;2022-12-22T16:20:29;11.53;;;1.67;;
10432;SDS011;5263;48.680;9.004;2022-12-22T16:22:57;9.13;;;1.33;;
10432;SDS011;5263;48.680;9.004;2022-12-22T16:25:29;10.30;;;1.43;;
10432;SDS011;5263;48.680;9.004;2022-12-22T16:27:58;11.67;;;1.20;;
10432;SDS011;5263;48.680;9.004;2022-12-22T16:30:28;8.37;;;1.60;;
10432;SDS011;5263;48.680;9.004;2022-12-22T16:32:56;11.80;;;2.23;;
10432;SDS011;5263;48.680;9.004;2022-12-22T16:35:22;10.57;;;1.70;;
10432;SDS011;5263;48.680;9.004;2022-12-22T16:37:49;7.67;;;1.73;;
10432;SDS011;5263;48.680;9.004;2022-12-22T16:40:16;18.40;;;2.10;;
10432;SDS011;5263;48.680;9.004;2022-12-22T16:42:48;10.33;;;1.73;;
10432;SDS011;5263;48.680;9.004;2022-12-22T16:45:21;14.17;;;1.47;;
10432;SDS011;5263;48.680;9.004;2022-12-22T16:47:50;5.17;;;1.30;;
10432;SDS011;5263;48.680;9.004;2022-12-22T16:50:18;8.33;;;1.77;;
10432;SDS011;5263;48.680;9.004;2022-12-22T16:52:46;11.67;;;1.70;;
10432;SDS011;5263;48.680;9.004;2022-12-22T16:55:13;11.40;;;2.50;;
10432;SDS011;5263;48.680;9.004;2022-12-22T16:57:39;13.43;;;2.23;;
10432;SDS011;5263;48.680;9.004;2022-12-22T17:00:05;6.67;;;2.27;;
10432;SDS011;5263;48.680;9.004;2022-12-22T17:02:37;10.37;;;1.73;;
10432;SDS011;5263;48.680;9.004;2022-12-22T17:05:02;14.03;;;1.93;;
10432;SDS011;5263;48.680;9.004;2022-12-22T17:07:29;6.70;;;1.57;;
10432;SDS011;5263;48.680;9.004;2022-12-22T17:09:58;10.13;;;1.50;;
10432;SDS011;5263;48.680;9.004;2022-12-22T17:12:28;12.17;;;1.40;;
10432;SDS011;5263;48.680;9.004;2022-12-22T17:14:58;9.73;;;2.47;;
10432;SDS011;5263;48.680;9.004;2022-12-22T17:17:25;16.33;;;2.13;;
10432;SDS011;5263;48.680;9.004;2022-12-22T17:19:51;12.87;;;2.00;;
10432;SDS011;5263;48.680;9.004;2022-12-22T17:22:27;11.10;;;2.17;;
10432;SDS011;5263;48.680;9.004;2022-12-22T17:24:54;13.20;;;1.80;;
10432;SDS011;5263;48.680;9.004;2022-12-22T17:27:23;11.17;;;1.73;;
10432;SDS011;5263;48.680;9.004;2022-12-22T17:29:53;19.23;;;2.90;;
10432;SDS011;5263;48.680;9.004;2022-12-22T17:32:19;15.37;;;3.07;;
10432;SDS011;5263;48.680;9.004;2022-12-22T17:34:46;15.30;;;2.37;;